Аэропорт: Белгород . Белгород

ICAO: UUOB

METAR:
2018/09/19 07:30
UUOB 190730Z 29005MPS CAVOK 19/09 Q1023 R29/010060 NOSIG
METAR:
Информация по данной станции не доступна